sensor_id;sensor_type;location;lat;lon;timestamp;P1;durP1;ratioP1;P2;durP2;ratioP2
14300;SDS011;7234;59.306;18.024;2023-02-01T18:02:01;1.97;;;1.67;;
14300;SDS011;7234;59.306;18.024;2023-02-01T18:04:57;1.37;;;1.13;;
14300;SDS011;7234;59.306;18.024;2023-02-01T18:07:25;2.00;;;1.30;;
14300;SDS011;7234;59.306;18.024;2023-02-01T18:09:52;3.60;;;1.77;;
14300;SDS011;7234;59.306;18.024;2023-02-01T18:15:57;4.97;;;1.70;;
14300;SDS011;7234;59.306;18.024;2023-02-01T18:21:52;7.10;;;1.50;;
14300;SDS011;7234;59.306;18.024;2023-02-01T18:24:30;4.33;;;1.53;;
14300;SDS011;7234;59.306;18.024;2023-02-01T18:26:59;4.10;;;1.57;;
14300;SDS011;7234;59.306;18.024;2023-02-01T18:29:27;3.67;;;1.70;;
14300;SDS011;7234;59.306;18.024;2023-02-01T18:32:32;3.00;;;1.90;;
14300;SDS011;7234;59.306;18.024;2023-02-01T18:35:16;4.87;;;2.43;;
14300;SDS011;7234;59.306;18.024;2023-02-01T18:37:46;5.03;;;2.13;;
14300;SDS011;7234;59.306;18.024;2023-02-01T18:40:24;5.13;;;1.90;;
14300;SDS011;7234;59.306;18.024;2023-02-01T18:42:58;4.33;;;1.93;;
14300;SDS011;7234;59.306;18.024;2023-02-01T18:45:50;4.10;;;2.00;;
14300;SDS011;7234;59.306;18.024;2023-02-01T18:48:42;2.23;;;1.47;;
14300;SDS011;7234;59.306;18.024;2023-02-01T18:51:16;2.27;;;1.50;;
14300;SDS011;7234;59.306;18.024;2023-02-01T18:53:45;2.50;;;1.50;;
14300;SDS011;7234;59.306;18.024;2023-02-01T18:56:13;4.00;;;1.70;;
14300;SDS011;7234;59.306;18.024;2023-02-01T18:58:42;2.00;;;1.43;;
14300;SDS011;7234;59.306;18.024;2023-02-01T19:01:12;3.50;;;1.80;;
14300;SDS011;7234;59.306;18.024;2023-02-01T19:03:40;2.77;;;1.60;;
14300;SDS011;7234;59.306;18.024;2023-02-01T19:06:08;2.47;;;1.60;;
14300;SDS011;7234;59.306;18.024;2023-02-01T19:08:39;4.17;;;1.57;;
14300;SDS011;7234;59.306;18.024;2023-02-01T19:11:07;2.83;;;1.97;;
14300;SDS011;7234;59.306;18.024;2023-02-01T19:13:38;2.23;;;1.37;;
14300;SDS011;7234;59.306;18.024;2023-02-01T19:16:06;4.67;;;1.70;;
14300;SDS011;7234;59.306;18.024;2023-02-01T19:18:34;3.53;;;1.70;;
14300;SDS011;7234;59.306;18.024;2023-02-01T19:21:03;3.57;;;1.70;;
14300;SDS011;7234;59.306;18.024;2023-02-01T19:23:34;3.77;;;1.97;;
14300;SDS011;7234;59.306;18.024;2023-02-01T19:26:08;3.13;;;1.73;;
14300;SDS011;7234;59.306;18.024;2023-02-01T19:28:38;2.33;;;1.33;;
14300;SDS011;7234;59.306;18.024;2023-02-01T19:31:06;6.07;;;1.57;;
14300;SDS011;7234;59.306;18.024;2023-02-01T19:33:34;2.20;;;1.50;;
14300;SDS011;7234;59.306;18.024;2023-02-01T19:36:02;4.43;;;2.30;;
14300;SDS011;7234;59.306;18.024;2023-02-01T19:38:33;1.60;;;1.50;;
14300;SDS011;7234;59.306;18.024;2023-02-01T19:41:01;3.33;;;1.50;;
14300;SDS011;7234;59.306;18.024;2023-02-01T19:43:30;3.27;;;1.40;;
14300;SDS011;7234;59.306;18.024;2023-02-01T19:45:58;3.30;;;1.53;;
14300;SDS011;7234;59.306;18.024;2023-02-01T19:48:26;2.87;;;1.73;;
14300;SDS011;7234;59.306;18.024;2023-02-01T19:50:53;2.67;;;1.30;;
14300;SDS011;7234;59.306;18.024;2023-02-01T19:53:21;2.60;;;1.43;;
14300;SDS011;7234;59.306;18.024;2023-02-01T19:55:52;3.50;;;1.70;;
14300;SDS011;7234;59.306;18.024;2023-02-01T19:58:24;2.20;;;1.53;;
14300;SDS011;7234;59.306;18.024;2023-02-01T20:00:51;5.23;;;1.90;;
14300;SDS011;7234;59.306;18.024;2023-02-01T20:03:20;4.30;;;2.00;;
14300;SDS011;7234;59.306;18.024;2023-02-01T20:05:49;4.50;;;1.70;;
14300;SDS011;7234;59.306;18.024;2023-02-01T20:08:17;3.80;;;1.17;;
14300;SDS011;7234;59.306;18.024;2023-02-01T20:10:44;3.27;;;1.73;;
14300;SDS011;7234;59.306;18.024;2023-02-01T20:13:11;2.03;;;1.50;;
14300;SDS011;7234;59.306;18.024;2023-02-01T20:15:40;2.53;;;1.30;;
14300;SDS011;7234;59.306;18.024;2023-02-01T20:18:08;2.40;;;1.33;;
14300;SDS011;7234;59.306;18.024;2023-02-01T20:20:39;3.73;;;1.57;;
14300;SDS011;7234;59.306;18.024;2023-02-01T20:23:06;6.40;;;1.60;;
14300;SDS011;7234;59.306;18.024;2023-02-01T20:25:35;1.93;;;1.50;;
14300;SDS011;7234;59.306;18.024;2023-02-01T20:28:02;4.43;;;1.60;;
14300;SDS011;7234;59.306;18.024;2023-02-01T20:30:30;1.50;;;1.20;;
14300;SDS011;7234;59.306;18.024;2023-02-01T20:32:59;4.13;;;1.70;;
14300;SDS011;7234;59.306;18.024;2023-02-01T20:35:26;4.37;;;2.27;;
14300;SDS011;7234;59.306;18.024;2023-02-01T20:37:53;3.07;;;1.63;;
14300;SDS011;7234;59.306;18.024;2023-02-01T20:40:23;2.57;;;1.47;;
14300;SDS011;7234;59.306;18.024;2023-02-01T20:42:50;5.77;;;1.60;;
14300;SDS011;7234;59.306;18.024;2023-02-01T20:45:17;2.37;;;1.47;;
14300;SDS011;7234;59.306;18.024;2023-02-01T20:47:47;2.30;;;1.30;;
14300;SDS011;7234;59.306;18.024;2023-02-01T20:50:16;3.20;;;1.50;;
14300;SDS011;7234;59.306;18.024;2023-02-01T20:52:43;2.40;;;1.37;;
14300;SDS011;7234;59.306;18.024;2023-02-01T20:55:11;4.33;;;1.60;;
14300;SDS011;7234;59.306;18.024;2023-02-01T20:57:38;1.73;;;1.30;;
14300;SDS011;7234;59.306;18.024;2023-02-01T21:00:05;2.13;;;1.13;;
14300;SDS011;7234;59.306;18.024;2023-02-01T21:02:34;3.13;;;1.40;;
14300;SDS011;7234;59.306;18.024;2023-02-01T21:05:02;3.63;;;1.57;;
14300;SDS011;7234;59.306;18.024;2023-02-01T21:07:30;2.80;;;1.37;;
14300;SDS011;7234;59.306;18.024;2023-02-01T21:09:58;3.23;;;1.50;;
14300;SDS011;7234;59.306;18.024;2023-02-01T21:12:25;3.70;;;1.50;;
14300;SDS011;7234;59.306;18.024;2023-02-01T21:14:52;2.43;;;1.40;;
14300;SDS011;7234;59.306;18.024;2023-02-01T21:17:19;3.23;;;2.33;;
14300;SDS011;7234;59.306;18.024;2023-02-01T21:19:47;2.63;;;1.83;;
14300;SDS011;7234;59.306;18.024;2023-02-01T21:22:14;3.40;;;1.70;;
14300;SDS011;7234;59.306;18.024;2023-02-01T21:24:43;4.13;;;1.47;;
14300;SDS011;7234;59.306;18.024;2023-02-01T21:27:24;2.20;;;1.43;;
14300;SDS011;7234;59.306;18.024;2023-02-01T21:29:57;2.10;;;1.57;;
14300;SDS011;7234;59.306;18.024;2023-02-01T21:32:50;1.73;;;1.20;;
14300;SDS011;7234;59.306;18.024;2023-02-01T21:35:17;3.33;;;1.27;;
14300;SDS011;7234;59.306;18.024;2023-02-01T21:37:44;2.23;;;1.23;;
14300;SDS011;7234;59.306;18.024;2023-02-01T21:40:13;2.80;;;1.27;;
14300;SDS011;7234;59.306;18.024;2023-02-01T21:42:59;2.70;;;1.23;;
14300;SDS011;7234;59.306;18.024;2023-02-01T21:45:37;2.80;;;1.20;;
14300;SDS011;7234;59.306;18.024;2023-02-01T21:48:21;1.90;;;1.40;;
14300;SDS011;7234;59.306;18.024;2023-02-01T21:50:48;1.40;;;1.17;;
14300;SDS011;7234;59.306;18.024;2023-02-01T21:53:15;3.47;;;1.27;;
14300;SDS011;7234;59.306;18.024;2023-02-01T21:55:46;2.67;;;1.20;;
14300;SDS011;7234;59.306;18.024;2023-02-01T21:58:18;1.03;;;0.90;;
14300;SDS011;7234;59.306;18.024;2023-02-01T22:00:45;2.03;;;1.20;;
14300;SDS011;7234;59.306;18.024;2023-02-01T22:03:13;2.23;;;1.30;;
14300;SDS011;7234;59.306;18.024;2023-02-01T22:05:40;1.53;;;1.00;;
14300;SDS011;7234;59.306;18.024;2023-02-01T22:08:13;2.00;;;1.00;;
14300;SDS011;7234;59.306;18.024;2023-02-01T22:10:41;6.80;;;1.50;;
14300;SDS011;7234;59.306;18.024;2023-02-01T22:13:12;1.27;;;0.90;;
14300;SDS011;7234;59.306;18.024;2023-02-01T22:15:39;1.37;;;1.13;;
14300;SDS011;7234;59.306;18.024;2023-02-01T22:18:06;4.50;;;1.47;;
14300;SDS011;7234;59.306;18.024;2023-02-01T22:20:39;1.57;;;0.90;;
14300;SDS011;7234;59.306;18.024;2023-02-01T22:23:06;1.33;;;1.17;;
14300;SDS011;7234;59.306;18.024;2023-02-01T22:25:35;3.27;;;1.00;;
14300;SDS011;7234;59.306;18.024;2023-02-01T22:28:22;2.97;;;0.87;;
14300;SDS011;7234;59.306;18.024;2023-02-01T22:30:50;1.97;;;1.03;;
14300;SDS011;7234;59.306;18.024;2023-02-01T22:33:18;0.87;;;0.83;;
14300;SDS011;7234;59.306;18.024;2023-02-01T22:36:16;1.87;;;0.93;;
14300;SDS011;7234;59.306;18.024;2023-02-01T22:41:50;0.70;;;0.70;;
14300;SDS011;7234;59.306;18.024;2023-02-01T22:44:25;0.87;;;0.60;;
14300;SDS011;7234;59.306;18.024;2023-02-01T22:46:57;1.00;;;0.90;;
14300;SDS011;7234;59.306;18.024;2023-02-01T22:52:16;1.00;;;0.90;;
14300;SDS011;7234;59.306;18.024;2023-02-01T22:54:43;1.30;;;0.80;;
14300;SDS011;7234;59.306;18.024;2023-02-01T22:57:11;1.40;;;0.80;;
14300;SDS011;7234;59.306;18.024;2023-02-01T22:59:51;1.10;;;0.80;;
14300;SDS011;7234;59.306;18.024;2023-02-01T23:02:32;0.60;;;0.60;;
14300;SDS011;7234;59.306;18.024;2023-02-01T23:05:11;3.27;;;0.90;;
14300;SDS011;7234;59.306;18.024;2023-02-01T23:10:45;2.20;;;0.70;;
14300;SDS011;7234;59.306;18.024;2023-02-01T23:13:12;2.97;;;0.80;;
14300;SDS011;7234;59.306;18.024;2023-02-01T23:15:41;1.27;;;0.77;;
14300;SDS011;7234;59.306;18.024;2023-02-01T23:18:12;1.20;;;0.70;;
14300;SDS011;7234;59.306;18.024;2023-02-01T23:20:55;1.33;;;0.80;;
14300;SDS011;7234;59.306;18.024;2023-02-01T23:23:22;2.40;;;1.13;;
14300;SDS011;7234;59.306;18.024;2023-02-01T23:25:50;1.43;;;0.73;;
14300;SDS011;7234;59.306;18.024;2023-02-01T23:28:21;3.03;;;0.60;;
14300;SDS011;7234;59.306;18.024;2023-02-01T23:31:04;1.10;;;0.70;;
14300;SDS011;7234;59.306;18.024;2023-02-01T23:33:33;2.33;;;0.83;;
14300;SDS011;7234;59.306;18.024;2023-02-01T23:36:02;0.77;;;0.67;;
14300;SDS011;7234;59.306;18.024;2023-02-01T23:38:32;0.50;;;0.50;;
14300;SDS011;7234;59.306;18.024;2023-02-01T23:44:05;1.63;;;0.70;;
14300;SDS011;7234;59.306;18.024;2023-02-01T23:46:40;1.13;;;0.50;;
14300;SDS011;7234;59.306;18.024;2023-02-01T23:49:11;1.17;;;0.60;;
14300;SDS011;7234;59.306;18.024;2023-02-01T23:51:40;2.00;;;0.70;;
14300;SDS011;7234;59.306;18.024;2023-02-01T23:54:16;0.60;;;0.60;;
14300;SDS011;7234;59.306;18.024;2023-02-01T23:57:06;1.70;;;0.70;;
14300;SDS011;7234;59.306;18.024;2023-02-01T23:59:33;1.47;;;0.60;;
